Friday, November 24, 2017, 8:14 AM EST
Back to Local

KBUF, Greater Buffalo International Airport

Location: Buffalo, NY, United States Lat: 42.933
Local Time: 8:14 AM EST (13:14 GMT) Lon: -78.733
Time Zone: US/Eastern Elev: 725 ft

Show me the last for .
Show Coded

Time T Td Feel RH Dir Speed Gust Alt SLP Vis Weather Sky Remarks
2017-11-24 07:54 35 27 26 72 200° 14 - 29.89 29.91 10 FEW026 SCT200 SCT250 None
2017-11-24 06:54 34 26 27 72 200° 9 - 29.90 29.93 10 SCT026 6-hr Min Temp (7am): 34.0°F
6-hr Max Temp (7am): 39.0°F
2017-11-24 05:54 37 28 29 69 210° 12 - 29.91 29.93 10 OVC022 None
2017-11-24 04:54 38 28 31 67 210° 10 - 29.92 29.94 10 OVC023 None
2017-11-24 03:54 38 28 31 67 200° 10 - 29.92 29.94 10 OVC026 None
2017-11-24 02:54 39 27 33 61 220° 8 - 29.94 29.96 10 OVC026 None
2017-11-24 01:54 38 27 33 64 200° 7 - 29.94 29.96 10 OVC027 None
2017-11-24 00:54 39 29 33 66 270° 9 - 29.94 29.96 10 BKN029 OVC033 6-hr Min Temp (1am): 36.0°F
6-hr Max Temp (1am): 39.9°F
2017-11-23 23:54 38 26 31 61 230° 10 - 29.95 29.97 10 BKN027 OVC033 24-hr Min Temp (12am): 26.1°F
24-hr Max Temp (12am): 37.9°F
2017-11-23 23:42 38 26 31 61 230° 10 - 29.95 - 10 BKN027 OVC033 None
2017-11-23 22:54 37 25 28 61 210° 14 - 29.94 29.96 10 BKN030 OVC037 None
2017-11-23 22:21 37 25 28 61 210° 15 - 29.94 - 10 BKN031 BKN034 None
2017-11-23 21:54 37 25 28 61 210° 14 - 29.95 29.97 10 BKN029 BKN033 None
2017-11-23 21:32 36 24 28 61 200° 13 - 29.94 - 10 BKN028 BKN034 None
2017-11-23 20:54 36 24 28 61 200° 13 - 29.95 29.98 10 BKN030 None
2017-11-23 19:54 36 24 28 61 210° 12 - 29.96 29.98 10 OVC030 None
2017-11-23 19:13 36 24 28 61 210° 12 - 29.96 - 10 OVC031 None
2017-11-23 18:54 36 24 28 61 210° 10 - 29.96 29.98 10 BKN029 OVC038 6-hr Min Temp (7pm): 33.1°F
6-hr Max Temp (7pm): 37.0°F
2017-11-23 17:54 36 25 25 63 220° 17 22 29.94 29.96 10 OVC028 None
2017-11-23 16:54 36 25 27 63 210° 14 - 29.94 29.96 10 OVC028 None
2017-11-23 16:25 36 26 28 66 220° 13 - 29.94 - 10 BKN028 OVC034 None
2017-11-23 15:54 37 26 28 64 210° 14 - 29.95 29.97 10 BKN030 OVC035 None
2017-11-23 15:01 35 26 25 69 210° 17 - 29.95 - 10 BKN030 OVC035 None
2017-11-23 14:54 35 26 26 69 200° 15 - 29.95 29.97 10 OVC028 None
2017-11-23 13:54 35 25 26 66 210° 14 - 29.98 30.01 10 OVC023 None
2017-11-23 12:54 33 26 24 75 190° 12 - 30.00 30.03 10 OVC020 6-hr Precip Total (1pm): 0.00"
6-hr Min Temp (1pm): 28.9°F
6-hr Max Temp (1pm): 33.1°F
2017-11-23 11:54 32 26 25 78 190° 8 - 30.04 30.06 10 OVC024 1-hr Precip Total: Trace
2017-11-23 10:54 31 25 23 78 170° 8 - 30.07 30.09 10 -SN OVC021 1-hr Precip Total: Trace
2017-11-23 09:54 31 24 26 75 190° 5 - 30.09 30.12 10 BKN022 OVC035 None
2017-11-23 09:19 30 23 25 74 190° 5 - 30.10 - 10 BKN026 OVC035 None
2017-11-23 08:54 30 23 23 74 180° 7 - 30.11 30.14 10 BKN030 BKN035 OVC110 None

Support USWX by starting your Amazon purchase here.